createdAt,value
2018-04-01T00:00:39.533Z,83.30
2018-04-01T00:03:07.142Z,83.30
2018-04-01T00:05:34.855Z,83.20
2018-04-01T00:08:03.229Z,83.70
2018-04-01T00:10:30.841Z,83.10
2018-04-01T00:12:58.555Z,83.10
2018-04-01T00:15:26.934Z,83.70
2018-04-01T00:17:54.698Z,83.10
2018-04-01T00:20:22.308Z,83.00
2018-04-01T00:22:50.941Z,83.20
2018-04-01T00:25:18.602Z,83.20
2018-04-01T00:27:46.214Z,83.30
2018-04-01T00:30:13.877Z,83.30
2018-04-01T00:32:42.298Z,83.50
2018-04-01T00:35:09.917Z,83.50
2018-04-01T00:37:38.337Z,83.30
2018-04-01T00:40:05.978Z,83.30
2018-04-01T00:42:34.369Z,83.30
2018-04-01T00:45:02.031Z,83.30
2018-04-01T00:47:30.477Z,83.50
2018-04-01T00:49:58.938Z,83.60
2018-04-01T00:52:26.571Z,83.60
2018-04-01T00:54:54.306Z,83.60
2018-04-01T00:57:22.665Z,83.40
2018-04-01T00:59:50.409Z,83.50
2018-04-01T01:02:18.824Z,83.50
2018-04-01T01:04:46.465Z,83.40
2018-04-01T01:07:14.860Z,83.30
2018-04-01T01:09:42.488Z,83.30
2018-04-01T01:12:10.967Z,83.50
2018-04-01T01:14:39.442Z,83.50
2018-04-01T01:17:07.864Z,83.40
2018-04-01T01:19:35.581Z,83.40
2018-04-01T01:22:03.989Z,83.20
2018-04-01T01:24:31.660Z,83.20
2018-04-01T01:26:59.319Z,83.00
2018-04-01T01:29:27.700Z,83.00
2018-04-01T01:31:55.349Z,83.10
2018-04-01T01:34:23.236Z,83.10
2018-04-01T01:36:50.889Z,82.90
2018-04-01T01:39:19.470Z,83.10
2018-04-01T01:41:47.103Z,83.00
2018-04-01T01:44:15.497Z,83.10
2018-04-01T01:46:43.168Z,83.00
2018-04-01T01:49:10.897Z,83.10
2018-04-01T01:51:39.317Z,83.20
2018-04-01T01:54:07.037Z,83.20
2018-04-01T01:56:35.425Z,83.20
2018-04-01T01:59:03.101Z,83.20
2018-04-01T02:01:31.581Z,83.20
2018-04-01T02:03:59.242Z,83.10
2018-04-01T02:06:26.847Z,83.20
2018-04-01T02:08:54.477Z,83.10
2018-04-01T02:14:12.353Z,83.00
2018-04-01T02:16:40.011Z,82.90
2018-04-01T02:19:07.655Z,83.00
2018-04-01T02:21:35.292Z,82.80
2018-04-01T02:24:02.914Z,82.80
2018-04-01T02:26:31.326Z,82.90
2018-04-01T02:28:58.969Z,82.80
2018-04-01T02:31:26.777Z,83.20
2018-04-01T02:33:55.092Z,85.40
2018-04-01T02:36:23.572Z,86.50
2018-04-01T02:38:52.052Z,87.10
2018-04-01T02:41:19.746Z,87.10
2018-04-01T02:43:48.225Z,88.20
2018-04-01T02:46:16.716Z,88.40
2018-04-01T02:48:44.365Z,88.40
2018-04-01T02:51:12.848Z,87.60
2018-04-01T02:53:40.571Z,87.50
2018-04-01T02:56:09.047Z,87.90
2018-04-01T02:58:36.807Z,87.90
2018-04-01T03:01:05.329Z,88.30
2018-04-01T03:03:33.698Z,87.90
2018-04-01T03:06:01.367Z,87.80
2018-04-01T03:08:29.766Z,88.00
2018-04-01T03:10:57.508Z,88.00
2018-04-01T03:13:25.108Z,88.00
2018-04-01T03:15:52.773Z,88.30
2018-04-01T03:18:20.393Z,88.60
2018-04-01T03:20:48.009Z,88.40
2018-04-01T03:23:16.511Z,88.50
2018-04-01T03:25:44.873Z,88.50
2018-04-01T03:28:13.382Z,88.60
2018-04-01T03:30:41.043Z,88.60
2018-04-01T03:33:09.522Z,88.20
2018-04-01T03:35:38.001Z,89.00
2018-04-01T03:38:05.624Z,88.30
2018-04-01T03:40:33.236Z,88.10
2018-04-01T03:43:00.985Z,88.00
2018-04-01T03:45:29.403Z,88.00
2018-04-01T03:47:56.995Z,88.00
2018-04-01T03:50:24.633Z,87.70
2018-04-01T03:52:53.776Z,87.80
2018-04-01T03:55:21.400Z,87.80
2018-04-01T03:57:49.034Z,87.40
2018-04-01T04:00:16.863Z,87.30
2018-04-01T04:02:45.198Z,87.80
2018-04-01T04:05:12.899Z,87.70
2018-04-01T04:07:40.559Z,87.50
2018-04-01T04:10:08.186Z,87.40
2018-04-01T04:12:36.564Z,87.40
2018-04-01T04:15:05.034Z,87.50
2018-04-01T04:17:32.692Z,87.50
2018-04-01T04:20:00.292Z,87.40
2018-04-01T04:22:27.952Z,87.40
2018-04-01T04:24:55.581Z,87.40
2018-04-01T04:27:24.092Z,87.50
2018-04-01T04:29:51.696Z,87.40
2018-04-01T04:32:20.921Z,87.70
2018-04-01T04:34:49.334Z,87.90
2018-04-01T04:37:16.969Z,87.90
2018-04-01T04:39:44.621Z,87.90
2018-04-01T04:42:13.024Z,87.80
2018-04-01T04:44:40.645Z,87.80
2018-04-01T04:47:09.061Z,87.80
2018-04-01T04:49:37.436Z,87.80
2018-04-01T04:52:05.165Z,87.80
2018-04-01T04:54:33.661Z,87.60
2018-04-01T04:57:02.053Z,87.50
2018-04-01T04:59:29.677Z,87.40
2018-04-01T05:01:58.080Z,87.60
2018-04-01T05:04:25.723Z,87.60
2018-04-01T05:06:54.124Z,87.60
2018-04-01T05:09:21.800Z,87.50
2018-04-01T05:11:50.282Z,87.70
2018-04-01T05:14:17.889Z,87.70
2018-04-01T05:16:45.598Z,87.70
2018-04-01T05:19:13.977Z,87.70
2018-04-01T05:21:41.614Z,87.70
2018-04-01T05:24:10.115Z,87.80
2018-04-01T05:26:37.720Z,87.80
2018-04-01T05:29:05.436Z,87.80
2018-04-01T05:31:33.064Z,87.40
2018-04-01T05:34:01.473Z,87.50
2018-04-01T05:36:29.087Z,87.50
2018-04-01T05:38:56.735Z,87.70
2018-04-01T05:41:24.360Z,88.00
2018-04-01T05:43:52.015Z,88.00
2018-04-01T05:46:20.392Z,88.70
2018-04-01T05:48:48.066Z,88.70
2018-04-01T05:51:16.640Z,88.80
2018-04-01T05:53:44.256Z,89.10
2018-04-01T05:56:12.745Z,88.70
2018-04-01T05:58:41.137Z,88.50
2018-04-01T06:01:08.780Z,88.50
2018-04-01T06:03:37.262Z,88.40
2018-04-01T06:06:05.741Z,88.40
2018-04-01T06:08:34.135Z,88.10
2018-04-01T06:11:01.758Z,88.00
2018-04-01T06:13:29.411Z,88.00
2018-04-01T06:15:57.135Z,87.70
2018-04-01T06:18:24.869Z,87.40
2018-04-01T06:20:53.277Z,87.20
2018-04-01T06:23:20.910Z,87.20
2018-04-01T06:25:49.420Z,87.50
2018-04-01T06:28:17.009Z,87.50
2018-04-01T06:30:44.678Z,87.60
2018-04-01T06:33:13.999Z,87.60
2018-04-01T06:35:42.516Z,88.60
2018-04-01T06:38:10.968Z,88.00
2018-04-01T06:40:39.381Z,88.30
2018-04-01T06:43:07.035Z,88.30
2018-04-01T06:45:34.694Z,88.50
2018-04-01T06:48:03.176Z,89.10
2018-04-01T06:50:31.621Z,89.50
2018-04-01T06:53:00.029Z,89.80
2018-04-01T06:55:27.739Z,89.80
2018-04-01T06:57:55.362Z,89.50
2018-04-01T07:00:23.017Z,90.10
2018-04-01T07:02:50.678Z,90.00
2018-04-01T07:05:19.073Z,90.10
2018-04-01T07:07:46.714Z,90.10
2018-04-01T07:10:14.341Z,90.20
2018-04-01T07:12:42.825Z,90.00
2018-04-01T07:15:11.236Z,89.80
2018-04-01T07:17:38.868Z,89.80
2018-04-01T07:20:07.273Z,89.40
2018-04-01T07:22:34.913Z,89.40
2018-04-01T07:25:02.542Z,89.50
2018-04-01T07:27:30.178Z,88.70
2018-04-01T07:29:57.887Z,87.90
2018-04-01T07:32:26.278Z,87.30
2018-04-01T07:34:53.913Z,87.20
2018-04-01T07:37:22.431Z,87.30
2018-04-01T07:39:50.918Z,87.00
2018-04-01T07:42:18.576Z,87.00
2018-04-01T07:44:47.053Z,86.00
2018-04-01T07:47:15.453Z,85.90
2018-04-01T07:49:43.194Z,85.90
2018-04-01T07:52:11.673Z,85.20
2018-04-01T07:54:40.076Z,84.70
2018-04-01T07:57:07.815Z,84.70
2018-04-01T07:59:36.292Z,83.90
2018-04-01T08:02:04.772Z,83.40
2018-04-01T08:04:33.154Z,82.90
2018-04-01T08:07:00.872Z,82.90
2018-04-01T08:09:29.393Z,82.80
2018-04-01T08:11:57.027Z,82.80
2018-04-01T08:14:25.536Z,82.50
2018-04-01T08:16:54.014Z,83.40
2018-04-01T08:19:22.393Z,85.00
2018-04-01T08:21:50.052Z,85.00
2018-04-01T08:24:17.713Z,86.10
2018-04-01T08:26:46.155Z,86.40
2018-04-01T08:29:14.645Z,86.30
2018-04-01T08:31:43.122Z,85.80
2018-04-01T08:34:11.524Z,86.00
2018-04-01T08:36:39.192Z,86.00
2018-04-01T08:39:07.566Z,85.80
2018-04-01T08:41:35.212Z,85.70
2018-04-01T08:44:02.891Z,86.10
2018-04-01T08:46:31.314Z,86.40
2018-04-01T08:48:58.930Z,86.40
2018-04-01T08:51:26.590Z,86.30
2018-04-01T08:53:54.976Z,86.70
2018-04-01T08:56:22.730Z,86.60
2018-04-01T08:58:51.103Z,87.10
2018-04-01T09:01:18.777Z,87.10
2018-04-01T09:03:46.448Z,86.60
2018-04-01T09:06:14.199Z,86.90
2018-04-01T09:08:41.861Z,85.80
2018-04-01T09:11:09.517Z,85.20
2018-04-01T09:13:37.156Z,84.70
2018-04-01T09:16:04.842Z,84.00
2018-04-01T09:18:32.459Z,83.00
2018-04-01T09:21:00.085Z,81.80
2018-04-01T09:23:27.735Z,81.50
2018-04-01T09:25:55.366Z,80.40
2018-04-01T09:28:22.998Z,79.30
2018-04-01T09:30:51.412Z,77.50
2018-04-01T09:33:19.046Z,77.50
2018-04-01T09:35:47.553Z,76.50
2018-04-01T09:38:15.298Z,76.40
2018-04-01T09:40:42.947Z,76.40
2018-04-01T09:43:11.407Z,77.10
2018-04-01T09:45:39.096Z,77.10
2018-04-01T09:48:07.512Z,76.80
2018-04-01T09:50:35.154Z,76.80
2018-04-01T09:53:02.916Z,76.50
2018-04-01T09:55:30.581Z,76.90
2018-04-01T09:57:58.302Z,76.10
2018-04-01T10:00:26.829Z,75.40
2018-04-01T10:02:54.993Z,75.30
2018-04-01T10:05:23.977Z,73.80
2018-04-01T10:07:52.138Z,73.80
2018-04-01T10:10:21.080Z,73.60
2018-04-01T10:12:49.210Z,73.70
2018-04-01T10:15:17.348Z,73.70
2018-04-01T10:17:46.281Z,71.60
2018-04-01T10:20:15.345Z,70.00
2018-04-01T10:22:43.450Z,69.90
2018-04-01T10:25:11.605Z,69.60
2018-04-01T10:27:39.753Z,70.50
2018-04-01T10:30:07.965Z,71.10
2018-04-01T10:32:36.103Z,71.20
2018-04-01T10:35:04.991Z,71.80
2018-04-01T10:37:34.013Z,71.40
2018-04-01T10:40:02.126Z,71.40
2018-04-01T10:42:30.364Z,70.00
2018-04-01T10:44:58.539Z,70.40
2018-04-01T10:47:26.644Z,70.10
2018-04-01T10:49:54.877Z,70.00
2018-04-01T10:52:24.926Z,66.80
2018-04-01T10:54:52.596Z,66.90
2018-04-01T10:57:20.218Z,66.00
2018-04-01T10:59:47.870Z,65.20
2018-04-01T11:02:16.279Z,65.40
2018-04-01T11:04:44.016Z,65.30
2018-04-01T11:07:11.665Z,63.90
2018-04-01T11:09:39.331Z,61.80
2018-04-01T11:12:07.737Z,59.90
2018-04-01T11:14:35.366Z,59.90
2018-04-01T11:17:03.022Z,60.80
2018-04-01T11:19:30.686Z,61.90
2018-04-01T11:21:58.352Z,61.90
2018-04-01T11:24:26.142Z,61.20
2018-04-01T11:26:53.801Z,62.50
2018-04-01T11:29:21.547Z,62.30
2018-04-01T11:31:49.181Z,62.30
2018-04-01T11:34:16.857Z,61.40
2018-04-01T11:36:45.268Z,63.50
2018-04-01T11:39:12.978Z,63.60
2018-04-01T11:41:41.450Z,66.50
2018-04-01T11:44:09.863Z,67.10
2018-04-01T11:46:37.498Z,67.00
2018-04-01T11:49:05.146Z,66.10
2018-04-01T11:51:32.794Z,65.00
2018-04-01T11:54:00.501Z,63.90
2018-04-01T11:56:28.152Z,63.30
2018-04-01T11:58:56.668Z,60.90
2018-04-01T12:01:24.256Z,61.00
2018-04-01T12:03:52.753Z,61.30
2018-04-01T12:06:21.193Z,62.40
2018-04-01T12:08:48.822Z,62.40
2018-04-01T12:11:16.466Z,63.20
2018-04-01T12:13:44.873Z,62.50
2018-04-01T12:16:12.508Z,62.50
2018-04-01T12:18:40.398Z,61.60
2018-04-01T12:21:08.034Z,62.10
2018-04-01T12:23:35.696Z,61.00
2018-04-01T12:26:03.323Z,59.00
2018-04-01T12:28:32.143Z,59.00
2018-04-01T12:31:00.004Z,58.90
2018-04-01T12:33:28.485Z,57.80
2018-04-01T12:35:56.874Z,57.50
2018-04-01T12:38:24.630Z,57.50
2018-04-01T12:40:52.245Z,56.40
2018-04-01T12:43:20.675Z,57.60
2018-04-01T12:45:48.285Z,57.60
2018-04-01T12:48:16.740Z,57.60
2018-04-01T12:50:45.287Z,57.60
2018-04-01T12:53:12.913Z,55.90
2018-04-01T12:55:41.314Z,56.80
2018-04-01T12:58:09.091Z,56.80
2018-04-01T13:00:36.712Z,56.70
2018-04-01T13:03:05.126Z,57.10
2018-04-01T13:05:32.856Z,57.10
2018-04-01T13:08:01.267Z,56.50
2018-04-01T13:10:29.001Z,56.40
2018-04-01T13:12:57.400Z,74.90
2018-04-01T13:15:25.157Z,74.90
2018-04-01T13:17:53.636Z,85.30
2018-04-01T13:20:21.290Z,85.30
2018-04-01T13:22:49.781Z,90.10
2018-04-01T13:25:17.540Z,90.10
2018-04-01T13:27:46.018Z,90.70
2018-04-01T13:30:13.762Z,90.70
2018-04-01T13:32:41.396Z,90.10
2018-04-01T13:35:09.837Z,91.50
2018-04-01T13:37:38.300Z,87.80
2018-04-01T13:40:05.927Z,87.80
2018-04-01T13:42:34.358Z,79.50
2018-04-01T13:45:02.111Z,79.40
2018-04-01T13:47:29.761Z,70.70
2018-04-01T13:49:57.423Z,64.60
2018-04-01T13:52:25.188Z,62.70
2018-04-01T13:54:52.839Z,61.60
2018-04-01T13:57:20.504Z,68.30
2018-04-01T13:59:48.128Z,66.40
2018-04-01T14:02:16.551Z,61.70
2018-04-01T14:04:44.300Z,61.60
2018-04-01T14:07:12.075Z,57.20
2018-04-01T14:09:39.721Z,48.90
2018-04-01T14:12:07.390Z,44.90
2018-04-01T14:14:35.062Z,42.80
2018-04-01T14:17:02.744Z,47.50
2018-04-01T14:19:30.418Z,53.90
2018-04-01T14:21:58.060Z,57.40
2018-04-01T14:24:25.788Z,62.60
2018-04-01T14:26:53.405Z,68.60
2018-04-01T14:29:21.927Z,75.40
2018-04-01T14:31:50.329Z,76.50
2018-04-01T14:34:18.029Z,76.40
2018-04-01T14:36:46.543Z,80.40
2018-04-01T14:39:14.935Z,81.40
2018-04-01T14:41:42.579Z,81.40
2018-04-01T14:44:10.240Z,81.40
2018-04-01T14:46:38.673Z,81.40
2018-04-01T14:49:06.260Z,81.30
2018-04-01T14:51:33.913Z,81.20
2018-04-01T14:54:02.415Z,80.30
2018-04-01T14:56:30.051Z,80.20
2018-04-01T14:58:58.545Z,77.40
2018-04-01T15:01:26.974Z,76.60
2018-04-01T15:03:54.629Z,76.60
2018-04-01T15:06:22.323Z,75.50
2018-04-01T15:08:50.851Z,65.50
2018-04-01T15:11:18.494Z,65.40
2018-04-01T15:13:46.157Z,56.10
2018-04-01T15:16:13.788Z,50.70
2018-04-01T15:18:42.209Z,44.10
2018-04-01T15:21:09.957Z,44.00
2018-04-01T15:23:37.613Z,39.70
2018-04-01T15:26:06.004Z,46.90
2018-04-01T15:28:33.762Z,46.90
2018-04-01T15:31:01.517Z,49.70
2018-04-01T15:33:29.175Z,52.00
2018-04-01T15:35:58.513Z,57.10
2018-04-01T15:38:26.255Z,57.10
2018-04-01T15:40:54.035Z,61.00
2018-04-01T15:43:21.696Z,62.70
2018-04-01T15:45:49.346Z,62.80
2018-04-01T15:48:16.972Z,64.50
2018-04-01T15:50:45.229Z,64.40
2018-04-01T15:53:12.929Z,65.70
2018-04-01T15:55:40.552Z,64.70
2018-04-01T15:58:08.942Z,63.90
2018-04-01T16:00:36.639Z,63.90
2018-04-01T16:03:04.380Z,64.50
2018-04-01T16:05:32.040Z,65.10
2018-04-01T16:07:59.805Z,65.60
2018-04-01T16:10:27.459Z,61.60
2018-04-01T16:12:55.928Z,52.60
2018-04-01T16:15:23.597Z,52.60
2018-04-01T16:17:51.996Z,59.30
2018-04-01T16:20:19.737Z,59.30
2018-04-01T16:22:48.160Z,59.90
2018-04-01T16:25:15.851Z,60.00
2018-04-01T16:27:44.261Z,61.50
2018-04-01T16:30:11.942Z,61.50
2018-04-01T16:32:39.567Z,62.00
2018-04-01T16:35:07.973Z,64.90
2018-04-01T16:37:35.716Z,64.90
2018-04-01T16:40:03.330Z,66.30
2018-04-01T16:42:31.751Z,68.10
2018-04-01T16:44:59.415Z,67.70
2018-04-01T16:47:27.033Z,68.60
2018-04-01T16:49:55.435Z,70.00
2018-04-01T16:52:23.121Z,70.00
2018-04-01T16:54:50.800Z,70.90
2018-04-01T16:57:18.430Z,70.70
2018-04-01T16:59:46.069Z,71.50
2018-04-01T17:02:13.853Z,72.10
2018-04-01T17:04:41.479Z,72.30
2018-04-01T17:07:09.991Z,72.90
2018-04-01T17:09:37.741Z,72.90
2018-04-01T17:12:05.416Z,73.00
2018-04-01T17:14:33.186Z,73.30
2018-04-01T17:17:00.838Z,73.80
2018-04-01T17:19:28.550Z,74.30
2018-04-01T17:21:56.171Z,74.70
2018-04-01T17:24:23.816Z,75.20
2018-04-01T17:26:51.476Z,75.70
2018-04-01T17:29:19.224Z,76.20
2018-04-01T17:31:46.901Z,76.80
2018-04-01T17:34:14.559Z,76.80
2018-04-01T17:36:42.974Z,77.30
2018-04-01T17:39:10.609Z,77.30
2018-04-01T17:41:38.338Z,77.40
2018-04-01T17:44:06.839Z,77.60
2018-04-01T17:46:35.340Z,77.70
2018-04-01T17:49:03.193Z,77.80
2018-04-01T17:51:30.859Z,77.90
2018-04-01T17:53:58.501Z,78.00
2018-04-01T17:56:26.141Z,78.10
2018-04-01T17:58:53.772Z,78.20
2018-04-01T18:01:21.483Z,78.40
2018-04-01T18:03:49.966Z,79.10
2018-04-01T18:06:17.595Z,79.10
2018-04-01T18:08:46.101Z,78.90
2018-04-01T18:11:14.584Z,79.10
2018-04-01T18:13:43.068Z,79.00
2018-04-01T18:16:10.708Z,78.90
2018-04-01T18:18:38.488Z,79.00
2018-04-01T18:21:06.145Z,78.90
2018-04-01T18:23:34.581Z,78.80
2018-04-01T18:26:02.199Z,78.80
2018-04-01T18:28:30.055Z,78.60
2018-04-01T18:30:57.656Z,78.60
2018-04-01T18:33:25.308Z,78.60
2018-04-01T18:35:53.135Z,78.80
2018-04-01T18:38:21.202Z,78.80
2018-04-01T18:40:49.689Z,79.20
2018-04-01T18:43:17.304Z,79.20
2018-04-01T18:45:45.002Z,79.20
2018-04-01T18:48:13.439Z,79.40
2018-04-01T18:50:41.861Z,79.40
2018-04-01T18:53:09.504Z,79.30
2018-04-01T18:55:37.901Z,79.70
2018-04-01T18:58:05.666Z,79.70
2018-04-01T19:00:33.425Z,79.80
2018-04-01T19:03:01.860Z,80.40
2018-04-01T19:05:29.569Z,81.00
2018-04-01T19:07:57.215Z,80.50
2018-04-01T19:10:25.619Z,80.70
2018-04-01T19:12:53.367Z,80.60
2018-04-01T19:15:21.132Z,80.70
2018-04-01T19:17:50.190Z,81.30
2018-04-01T19:20:19.096Z,81.50
2018-04-01T19:22:48.026Z,81.60
2018-04-01T19:25:16.145Z,81.60
2018-04-01T19:27:45.174Z,81.60
2018-04-01T19:30:13.552Z,81.50
2018-04-01T19:32:41.670Z,81.40
2018-04-01T19:35:09.865Z,80.90
2018-04-01T19:37:38.757Z,80.80
2018-04-01T19:40:07.688Z,80.70
2018-04-01T19:42:35.864Z,80.70
2018-04-01T19:45:04.003Z,81.00
2018-04-01T19:47:32.900Z,80.80
2018-04-01T19:50:01.073Z,80.70
2018-04-01T19:52:30.129Z,80.90
2018-04-01T19:54:58.360Z,80.90
2018-04-01T19:57:27.350Z,80.60
2018-04-01T19:59:56.616Z,80.70
2018-04-01T20:02:24.739Z,80.70
2018-04-01T20:04:52.891Z,80.80
2018-04-01T20:07:21.023Z,81.00
2018-04-01T20:09:49.201Z,80.80
2018-04-01T20:12:18.423Z,80.90
2018-04-01T20:14:47.436Z,80.60
2018-04-01T20:17:15.557Z,80.50
2018-04-01T20:19:43.689Z,80.50
2018-04-01T20:22:11.957Z,80.90
2018-04-01T20:24:40.045Z,80.00
2018-04-01T20:27:08.216Z,80.10
2018-04-01T20:29:36.353Z,80.00
2018-04-01T20:32:04.546Z,80.10
2018-04-01T20:34:32.744Z,80.10
2018-04-01T20:37:00.889Z,79.80
2018-04-01T20:39:29.166Z,79.70
2018-04-01T20:41:57.338Z,79.70
2018-04-01T20:44:26.189Z,79.60
2018-04-01T20:46:54.368Z,79.70
2018-04-01T20:49:22.493Z,79.90
2018-04-01T20:51:50.647Z,79.90
2018-04-01T20:54:18.822Z,80.10
2018-04-01T20:56:46.937Z,79.90
2018-04-01T20:59:15.162Z,80.10
2018-04-01T21:01:44.033Z,79.90
2018-04-01T21:04:12.192Z,79.90
2018-04-01T21:06:41.084Z,79.70
2018-04-01T21:09:09.986Z,79.80
2018-04-01T21:11:38.181Z,79.80
2018-04-01T21:14:06.346Z,80.10
2018-04-01T21:16:35.348Z,80.70
2018-04-01T21:19:03.452Z,80.70
2018-04-01T21:21:31.580Z,81.00
2018-04-01T21:23:59.718Z,81.50
2018-04-01T21:26:28.745Z,81.90
2018-04-01T21:28:56.856Z,81.90
2018-04-01T21:31:25.516Z,82.00
2018-04-01T21:33:53.630Z,82.90
2018-04-01T21:36:21.773Z,82.60
2018-04-01T21:38:49.936Z,83.00
2018-04-01T21:41:18.077Z,82.30
2018-04-01T21:43:46.266Z,82.60
2018-04-01T21:46:15.235Z,82.10
2018-04-01T21:48:44.224Z,81.80
2018-04-01T21:51:13.181Z,81.70
2018-04-01T21:53:41.421Z,81.70
2018-04-01T21:56:10.326Z,81.10
2018-04-01T21:58:38.462Z,81.10
2018-04-01T22:01:07.376Z,80.60
2018-04-01T22:03:36.273Z,80.70
2018-04-01T22:06:04.438Z,80.60
2018-04-01T22:08:32.611Z,80.20
2018-04-01T22:11:01.486Z,80.40
2018-04-01T22:13:29.614Z,80.30
2018-04-01T22:15:57.826Z,80.40
2018-04-01T22:18:26.719Z,80.40
2018-04-01T22:20:55.733Z,81.00
2018-04-01T22:23:23.876Z,80.30
2018-04-01T22:25:52.814Z,80.50
2018-04-01T22:28:20.918Z,80.50
2018-04-01T22:30:49.050Z,80.60
2018-04-01T22:33:17.973Z,80.10
2018-04-01T22:35:46.126Z,80.30
2018-04-01T22:38:14.289Z,80.40
2018-04-01T22:40:42.462Z,80.50
2018-04-01T22:43:10.574Z,80.60
2018-04-01T22:45:38.808Z,80.50
2018-04-01T22:48:07.675Z,80.40
2018-04-01T22:50:35.856Z,80.30
2018-04-01T22:53:03.981Z,80.20
2018-04-01T22:55:32.128Z,80.50
2018-04-01T22:58:00.276Z,80.60
2018-04-01T23:00:29.188Z,80.50
2018-04-01T23:02:57.322Z,80.50
2018-04-01T23:05:25.597Z,80.70
2018-04-01T23:07:54.626Z,80.80
2018-04-01T23:10:23.540Z,80.90
2018-04-01T23:12:52.427Z,80.90
2018-04-01T23:15:20.702Z,80.90
2018-04-01T23:17:48.810Z,81.10
2018-04-01T23:20:17.052Z,81.20
2018-04-01T23:22:45.219Z,81.40
2018-04-01T23:25:13.337Z,81.60
2018-04-01T23:27:41.448Z,81.90
2018-04-01T23:30:09.602Z,82.30
2018-04-01T23:32:38.579Z,82.40
2018-04-01T23:35:07.509Z,82.50
2018-04-01T23:37:36.372Z,82.70
2018-04-01T23:40:05.288Z,82.70
2018-04-01T23:42:33.389Z,83.30
2018-04-01T23:45:01.617Z,82.80
2018-04-01T23:47:29.810Z,83.00
2018-04-01T23:49:57.922Z,83.10
2018-04-01T23:52:26.164Z,83.20
2018-04-01T23:54:54.258Z,83.30
2018-04-01T23:57:22.410Z,83.60
2018-04-01T23:59:50.548Z,83.80
